createdAt,value
2022-09-23T00:02:11.137Z,100.00
2022-09-23T00:07:13.242Z,100.00
2022-09-23T00:12:15.331Z,100.00
2022-09-23T00:17:17.677Z,100.00
2022-09-23T00:22:20.367Z,100.00
2022-09-23T00:27:22.432Z,100.00
2022-09-23T00:32:24.949Z,100.00
2022-09-23T00:37:28.946Z,100.00
2022-09-23T00:42:31.346Z,100.00
2022-09-23T00:47:56.164Z,100.00
2022-09-23T00:53:01.775Z,100.00
2022-09-23T00:58:07.456Z,100.00
2022-09-23T01:03:10.870Z,100.00
2022-09-23T01:08:14.685Z,100.00
2022-09-23T01:13:55.175Z,100.00
2022-09-23T01:19:23.189Z,100.00
2022-09-23T01:24:44.677Z,100.00
2022-09-23T01:29:54.521Z,100.00
2022-09-23T01:35:30.907Z,100.00
2022-09-23T01:40:45.879Z,100.00
2022-09-23T01:45:54.839Z,100.00
2022-09-23T01:51:06.562Z,100.00
2022-09-23T01:56:19.783Z,100.00
2022-09-23T02:01:47.168Z,100.00
2022-09-23T02:07:03.034Z,100.00
2022-09-23T02:12:12.971Z,100.00
2022-09-23T02:17:19.942Z,100.00
2022-09-23T02:22:28.559Z,100.00
2022-09-23T02:27:43.217Z,100.00
2022-09-23T02:33:15.688Z,100.00
2022-09-23T02:38:24.557Z,100.00
2022-09-23T02:43:46.287Z,100.00
2022-09-23T02:49:01.167Z,100.00
2022-09-23T02:54:07.443Z,100.00
2022-09-23T02:59:11.813Z,100.00
2022-09-23T03:04:35.735Z,100.00
2022-09-23T03:10:00.201Z,100.00
2022-09-23T03:15:26.478Z,100.00
2022-09-23T03:20:36.467Z,100.00
2022-09-23T03:25:43.142Z,100.00
2022-09-23T03:30:45.622Z,100.00
2022-09-23T03:36:28.259Z,100.00
2022-09-23T03:41:39.484Z,100.00
2022-09-23T03:46:46.819Z,100.00
2022-09-23T03:51:49.100Z,100.00
2022-09-23T03:56:51.193Z,100.00
2022-09-23T04:01:54.253Z,100.00
2022-09-23T04:06:56.922Z,100.00
2022-09-23T04:11:59.253Z,100.00
2022-09-23T04:17:02.984Z,100.00
2022-09-23T04:22:05.894Z,100.00
2022-09-23T04:27:08.106Z,100.00
2022-09-23T04:32:10.420Z,100.00
2022-09-23T04:37:12.616Z,100.00
2022-09-23T04:42:14.990Z,100.00
2022-09-23T04:47:19.526Z,100.00
2022-09-23T04:52:22.007Z,100.00
2022-09-23T04:57:24.915Z,100.00
2022-09-23T05:02:28.566Z,100.00
2022-09-23T05:07:30.788Z,100.00
2022-09-23T05:12:33.239Z,100.00
2022-09-23T05:17:37.533Z,100.00
2022-09-23T05:22:39.854Z,100.00
2022-09-23T05:27:42.625Z,100.00
2022-09-23T05:32:44.914Z,100.00
2022-09-23T05:37:47.095Z,100.00
2022-09-23T05:42:50.280Z,100.00
2022-09-23T05:47:52.518Z,100.00
2022-09-23T05:52:55.128Z,100.00
2022-09-23T05:57:57.228Z,100.00
2022-09-23T06:02:59.626Z,78.18
2022-09-23T06:08:01.959Z,44.68
2022-09-23T06:13:04.517Z,35.73
2022-09-23T06:18:07.076Z,33.25
2022-09-23T06:23:11.502Z,31.46
2022-09-23T06:28:14.704Z,43.28
2022-09-23T06:33:19.334Z,45.05
2022-09-23T06:38:26.741Z,50.66
2022-09-23T06:43:29.317Z,64.25
2022-09-23T06:48:35.434Z,53.27
2022-09-23T06:53:37.550Z,42.76
2022-09-23T06:58:40.655Z,37.75
2022-09-23T07:03:43.491Z,40.50
2022-09-23T07:08:47.652Z,43.01
2022-09-23T07:13:49.987Z,40.92
2022-09-23T07:18:53.668Z,41.23
2022-09-23T07:23:58.330Z,39.65
2022-09-23T07:29:05.358Z,40.15
2022-09-23T07:49:22.356Z,34.71
2022-09-23T07:54:25.845Z,35.35
2022-09-23T07:59:28.103Z,37.46
2022-09-23T08:04:32.038Z,39.00
2022-09-23T08:09:41.802Z,41.43
2022-09-23T08:14:44.569Z,37.78
2022-09-23T08:19:46.684Z,38.75
2022-09-23T08:24:48.703Z,36.38
2022-09-23T08:29:50.852Z,39.73
2022-09-23T08:34:53.065Z,44.29
2022-09-23T08:39:55.265Z,47.56
2022-09-23T08:45:02.079Z,45.01
2022-09-23T08:50:24.842Z,40.06
2022-09-23T08:55:34.208Z,36.65
2022-09-23T09:00:46.434Z,37.30
2022-09-23T09:05:54.250Z,40.14
2022-09-23T09:10:58.749Z,37.70
2022-09-23T09:16:13.148Z,35.97
2022-09-23T09:21:16.168Z,35.42
2022-09-23T09:26:23.334Z,33.68
2022-09-23T09:31:33.259Z,35.47
2022-09-23T09:36:44.152Z,35.47
2022-09-23T09:41:48.248Z,37.36
2022-09-23T09:47:01.498Z,37.03
2022-09-23T09:52:26.240Z,39.19
2022-09-23T09:57:35.925Z,38.31
2022-09-23T10:02:40.362Z,35.22
2022-09-23T10:07:42.612Z,35.66
2022-09-23T10:12:47.117Z,37.86
2022-09-23T10:17:52.021Z,36.45
2022-09-23T10:22:56.439Z,37.08
2022-09-23T10:27:58.639Z,39.85
2022-09-23T10:33:01.469Z,42.51
2022-09-23T10:38:03.681Z,50.16
2022-09-23T10:43:42.667Z,57.32
2022-09-23T10:48:55.549Z,66.56
2022-09-23T10:54:05.246Z,64.25
2022-09-23T10:59:28.185Z,62.67
2022-09-23T11:04:30.380Z,64.62
2022-09-23T11:09:44.557Z,62.68
2022-09-23T11:15:11.218Z,55.46
2022-09-23T11:20:21.450Z,56.89
2022-09-23T11:25:42.379Z,49.81
2022-09-23T11:30:56.157Z,50.97
2022-09-23T11:36:10.021Z,50.11
2022-09-23T11:41:38.745Z,49.28
2022-09-23T11:46:49.381Z,45.13
2022-09-23T11:51:54.617Z,44.91
2022-09-23T11:57:03.768Z,44.22
2022-09-23T12:02:31.483Z,42.64
2022-09-23T12:07:56.854Z,41.64
2022-09-23T12:13:16.378Z,45.32
2022-09-23T12:18:33.355Z,47.73
2022-09-23T12:24:18.911Z,50.24
2022-09-23T12:29:21.818Z,49.86
2022-09-23T12:34:30.290Z,50.77
2022-09-23T12:39:41.732Z,51.19
2022-09-23T12:44:47.429Z,50.31
2022-09-23T12:49:50.948Z,50.32
2022-09-23T12:54:58.041Z,48.00
2022-09-23T13:00:11.650Z,49.78
2022-09-23T13:05:38.438Z,49.35
2022-09-23T13:11:00.336Z,50.68
2022-09-23T13:16:13.577Z,53.88
2022-09-23T13:21:19.075Z,64.57
2022-09-23T13:26:21.781Z,57.83
2022-09-23T13:31:23.860Z,51.96
2022-09-23T13:36:26.523Z,47.53
2022-09-23T13:41:28.894Z,53.62
2022-09-23T13:46:40.674Z,59.17
2022-09-23T13:51:45.123Z,61.04
2022-09-23T13:56:49.801Z,59.33
2022-09-23T14:02:05.128Z,69.40
2022-09-23T14:07:09.820Z,65.49
2022-09-23T14:12:12.573Z,95.47
2022-09-23T14:17:18.699Z,92.87
2022-09-23T14:22:27.089Z,100.00
2022-09-23T14:27:32.723Z,91.81
2022-09-23T14:32:35.189Z,99.54
2022-09-23T14:37:55.726Z,95.97
2022-09-23T14:43:03.924Z,100.00
2022-09-23T14:48:10.044Z,97.55
2022-09-23T14:53:24.312Z,93.53
2022-09-23T14:58:30.841Z,96.89
2022-09-23T15:03:33.180Z,95.75
2022-09-23T15:08:36.043Z,92.17
2022-09-23T15:13:41.919Z,90.30
2022-09-23T15:18:46.427Z,93.97
2022-09-23T15:23:48.570Z,95.43
2022-09-23T15:28:56.060Z,100.00
2022-09-23T15:33:58.605Z,100.00
2022-09-23T15:39:06.842Z,100.00
2022-09-23T15:44:18.053Z,100.00
2022-09-23T15:49:34.621Z,100.00
2022-09-23T15:54:38.137Z,100.00
2022-09-23T15:59:41.247Z,100.00
2022-09-23T16:04:43.367Z,100.00
2022-09-23T16:09:45.882Z,100.00
2022-09-23T16:14:48.128Z,100.00
2022-09-23T16:19:50.512Z,100.00
2022-09-23T16:24:52.562Z,100.00
2022-09-23T16:29:54.738Z,100.00
2022-09-23T16:34:58.729Z,100.00
2022-09-23T17:28:15.492Z,100.00
2022-09-23T17:55:08.101Z,100.00
2022-09-23T18:06:48.463Z,100.00
2022-09-23T18:48:06.814Z,100.00
2022-09-23T18:53:12.306Z,100.00
2022-09-23T18:58:14.572Z,100.00
2022-09-23T19:03:17.215Z,100.00
2022-09-23T19:08:19.999Z,100.00
2022-09-23T19:13:22.077Z,100.00
2022-09-23T19:18:24.184Z,100.00
2022-09-23T19:23:29.173Z,100.00
2022-09-23T19:28:31.713Z,100.00
2022-09-23T19:33:34.022Z,100.00
2022-09-23T19:38:39.569Z,100.00
2022-09-23T19:43:41.749Z,100.00
2022-09-23T19:48:44.077Z,100.00
2022-09-23T19:53:46.892Z,100.00
2022-09-23T19:58:54.389Z,100.00
2022-09-23T20:03:57.081Z,100.00
2022-09-23T20:09:01.205Z,100.00
2022-09-23T20:14:06.552Z,100.00
2022-09-23T20:19:10.177Z,100.00
2022-09-23T20:24:48.355Z,100.00
2022-09-23T20:29:51.715Z,100.00
2022-09-23T20:34:54.044Z,100.00
2022-09-23T20:39:56.078Z,100.00
2022-09-23T20:44:58.604Z,100.00
2022-09-23T20:50:00.853Z,100.00
2022-09-23T20:55:03.667Z,100.00
2022-09-23T21:00:30.825Z,100.00
2022-09-23T21:05:31.110Z,100.00
2022-09-23T21:10:36.229Z,100.00
2022-09-23T21:15:38.539Z,100.00
2022-09-23T21:20:40.927Z,100.00
2022-09-23T21:25:44.944Z,100.00
2022-09-23T21:30:51.193Z,100.00
2022-09-23T21:35:55.910Z,100.00
2022-09-23T21:40:59.561Z,100.00
2022-09-23T21:46:04.957Z,100.00
2022-09-23T21:51:09.878Z,100.00
2022-09-23T21:56:21.442Z,100.00
2022-09-23T22:01:26.952Z,100.00
2022-09-23T22:06:30.747Z,100.00
2022-09-23T22:11:51.927Z,100.00
2022-09-23T22:16:59.296Z,100.00
2022-09-23T22:22:03.255Z,100.00
2022-09-23T22:27:07.852Z,100.00
2022-09-23T22:32:30.485Z,100.00
2022-09-23T22:37:35.146Z,100.00
2022-09-23T22:42:37.794Z,100.00
2022-09-23T22:47:44.209Z,100.00
2022-09-23T22:52:47.413Z,100.00
2022-09-23T22:57:51.756Z,100.00
2022-09-23T23:02:54.717Z,100.00
2022-09-23T23:07:57.685Z,100.00
2022-09-23T23:12:59.955Z,100.00
2022-09-23T23:18:02.005Z,100.00
2022-09-23T23:23:04.127Z,100.00
2022-09-23T23:28:06.158Z,100.00
2022-09-23T23:33:08.457Z,100.00
2022-09-23T23:38:13.519Z,100.00
2022-09-23T23:43:15.651Z,100.00
2022-09-23T23:48:20.961Z,100.00
2022-09-23T23:53:24.712Z,100.00
2022-09-23T23:58:28.103Z,100.00
